sensor_id;sensor_type;location;lat;lon;timestamp;pressure;altitude;pressure_sealevel;temperature;humidity
64876;BME280;51369;49.862;9.908;2023-10-19T00:00:36;96794.09;;;10.52;80.96
64876;BME280;51369;49.862;9.908;2023-10-19T00:03:06;96778.75;;;10.52;79.65
64876;BME280;51369;49.862;9.908;2023-10-19T00:05:33;96766.13;;;10.53;80.20
64876;BME280;51369;49.862;9.908;2023-10-19T00:08:02;96764.31;;;10.53;80.74
64876;BME280;51369;49.862;9.908;2023-10-19T00:10:41;96761.50;;;10.55;80.42
64876;BME280;51369;49.862;9.908;2023-10-19T00:13:09;96755.13;;;10.56;79.47
64876;BME280;51369;49.862;9.908;2023-10-19T00:15:38;96747.91;;;10.56;79.92
64876;BME280;51369;49.862;9.908;2023-10-19T00:18:06;96756.75;;;10.58;80.14
64876;BME280;51369;49.862;9.908;2023-10-19T00:20:42;96752.97;;;10.61;80.31
64876;BME280;51369;49.862;9.908;2023-10-19T00:23:28;96764.53;;;10.63;81.14
64876;BME280;51369;49.862;9.908;2023-10-19T00:26:02;96767.13;;;10.64;81.30
64876;BME280;51369;49.862;9.908;2023-10-19T00:28:38;96775.97;;;10.66;82.03
64876;BME280;51369;49.862;9.908;2023-10-19T00:31:04;96776.84;;;10.67;81.82
64876;BME280;51369;49.862;9.908;2023-10-19T00:33:34;96772.31;;;10.67;82.55
64876;BME280;51369;49.862;9.908;2023-10-19T00:36:08;96763.25;;;10.68;81.99
64876;BME280;51369;49.862;9.908;2023-10-19T00:38:35;96769.50;;;10.69;82.69
64876;BME280;51369;49.862;9.908;2023-10-19T00:41:01;96772.22;;;10.69;82.91
64876;BME280;51369;49.862;9.908;2023-10-19T00:43:41;96758.63;;;10.70;82.28
64876;BME280;51369;49.862;9.908;2023-10-19T00:46:11;96762.19;;;10.71;83.12
64876;BME280;51369;49.862;9.908;2023-10-19T00:48:47;96760.44;;;10.70;82.04
64876;BME280;51369;49.862;9.908;2023-10-19T00:51:16;96755.06;;;10.70;83.29
64876;BME280;51369;49.862;9.908;2023-10-19T00:53:57;96744.16;;;10.71;81.85
64876;BME280;51369;49.862;9.908;2023-10-19T00:56:25;96746.94;;;10.70;82.46
64876;BME280;51369;49.862;9.908;2023-10-19T00:58:54;96739.81;;;10.69;81.42
64876;BME280;51369;49.862;9.908;2023-10-19T01:01:27;96728.16;;;10.68;81.91
64876;BME280;51369;49.862;9.908;2023-10-19T01:03:54;96719.19;;;10.68;82.78
64876;BME280;51369;49.862;9.908;2023-10-19T01:06:23;96727.31;;;10.68;81.95
64876;BME280;51369;49.862;9.908;2023-10-19T01:08:49;96718.34;;;10.67;82.60
64876;BME280;51369;49.862;9.908;2023-10-19T01:11:16;96719.09;;;10.69;82.32
64876;BME280;51369;49.862;9.908;2023-10-19T01:13:46;96711.97;;;10.68;82.31
64876;BME280;51369;49.862;9.908;2023-10-19T01:16:14;96703.00;;;10.68;81.93
64876;BME280;51369;49.862;9.908;2023-10-19T01:18:47;96692.22;;;10.68;81.92
64876;BME280;51369;49.862;9.908;2023-10-19T01:21:13;96705.72;;;10.68;81.79
64876;BME280;51369;49.862;9.908;2023-10-19T01:23:39;96692.22;;;10.68;82.47
64876;BME280;51369;49.862;9.908;2023-10-19T01:26:04;96694.91;;;10.68;81.83
64876;BME280;51369;49.862;9.908;2023-10-19T01:28:35;96694.91;;;10.68;82.29
64876;BME280;51369;49.862;9.908;2023-10-19T01:31:15;96678.72;;;10.68;82.00
64876;BME280;51369;49.862;9.908;2023-10-19T01:33:43;96676.88;;;10.68;81.74
64876;BME280;51369;49.862;9.908;2023-10-19T01:36:10;96674.19;;;10.68;81.90
64876;BME280;51369;49.862;9.908;2023-10-19T01:38:35;96676.88;;;10.68;81.37
64876;BME280;51369;49.862;9.908;2023-10-19T01:41:02;96674.19;;;10.68;82.38
64876;BME280;51369;49.862;9.908;2023-10-19T01:43:32;96674.06;;;10.70;81.82
64876;BME280;51369;49.862;9.908;2023-10-19T01:45:58;96676.03;;;10.68;81.62
64876;BME280;51369;49.862;9.908;2023-10-19T01:48:29;96670.53;;;10.69;83.02
64876;BME280;51369;49.862;9.908;2023-10-19T01:51:05;96665.00;;;10.71;82.42
64876;BME280;51369;49.862;9.908;2023-10-19T01:53:34;96665.97;;;10.70;82.49
64876;BME280;51369;49.862;9.908;2023-10-19T01:56:02;96666.75;;;10.72;83.14
64876;BME280;51369;49.862;9.908;2023-10-19T01:58:31;96655.94;;;10.72;82.93
64876;BME280;51369;49.862;9.908;2023-10-19T02:01:02;96655.94;;;10.72;82.24
64876;BME280;51369;49.862;9.908;2023-10-19T02:03:33;96662.97;;;10.74;83.17
64876;BME280;51369;49.862;9.908;2023-10-19T02:05:59;96651.31;;;10.74;82.77
64876;BME280;51369;49.862;9.908;2023-10-19T02:08:25;96658.44;;;10.75;84.03
64876;BME280;51369;49.862;9.908;2023-10-19T02:10:52;96660.16;;;10.76;83.37
64876;BME280;51369;49.862;9.908;2023-10-19T02:13:19;96660.91;;;10.78;83.72
64876;BME280;51369;49.862;9.908;2023-10-19T02:15:45;96648.28;;;10.79;83.66
64876;BME280;51369;49.862;9.908;2023-10-19T02:18:10;96645.56;;;10.79;83.84
64876;BME280;51369;49.862;9.908;2023-10-19T02:20:36;96645.34;;;10.82;84.71
64876;BME280;51369;49.862;9.908;2023-10-19T02:23:07;96640.81;;;10.82;83.88
64876;BME280;51369;49.862;9.908;2023-10-19T02:25:34;96637.16;;;10.83;83.92
64876;BME280;51369;49.862;9.908;2023-10-19T02:28:05;96626.34;;;10.83;84.69
64876;BME280;51369;49.862;9.908;2023-10-19T02:30:34;96635.09;;;10.87;84.12
64876;BME280;51369;49.862;9.908;2023-10-19T02:33:00;96625.91;;;10.89;85.23
64876;BME280;51369;49.862;9.908;2023-10-19T02:35:27;96625.06;;;10.89;84.59
64876;BME280;51369;49.862;9.908;2023-10-19T02:37:53;96629.47;;;10.90;85.33
64876;BME280;51369;49.862;9.908;2023-10-19T02:40:18;96631.09;;;10.92;84.83
64876;BME280;51369;49.862;9.908;2023-10-19T02:42:49;96621.16;;;10.93;85.45
64876;BME280;51369;49.862;9.908;2023-10-19T02:45:19;96612.09;;;10.94;85.04
64876;BME280;51369;49.862;9.908;2023-10-19T02:47:45;96615.66;;;10.94;85.70
64876;BME280;51369;49.862;9.908;2023-10-19T02:50:12;96614.69;;;10.95;85.34
64876;BME280;51369;49.862;9.908;2023-10-19T02:52:42;96601.94;;;10.97;85.65
64876;BME280;51369;49.862;9.908;2023-10-19T02:55:09;96606.34;;;10.98;86.26
64876;BME280;51369;49.862;9.908;2023-10-19T02:57:36;96600.94;;;10.98;86.40
64876;BME280;51369;49.862;9.908;2023-10-19T03:00:04;96601.69;;;11.00;86.38
64876;BME280;51369;49.862;9.908;2023-10-19T03:02:34;96593.50;;;11.02;85.32
64876;BME280;51369;49.862;9.908;2023-10-19T03:05:01;96583.66;;;11.01;84.67
64876;BME280;51369;49.862;9.908;2023-10-19T03:07:35;96585.50;;;11.00;85.30
64876;BME280;51369;49.862;9.908;2023-10-19T03:10:00;96582.81;;;11.00;85.26
64876;BME280;51369;49.862;9.908;2023-10-19T03:12:27;96583.78;;;10.99;85.70
64876;BME280;51369;49.862;9.908;2023-10-19T03:14:53;96580.97;;;11.01;85.31
64876;BME280;51369;49.862;9.908;2023-10-19T03:17:18;96573.72;;;11.01;85.34
64876;BME280;51369;49.862;9.908;2023-10-19T03:19:43;96571.88;;;11.02;86.04
64876;BME280;51369;49.862;9.908;2023-10-19T03:22:09;96567.34;;;11.02;86.16
64876;BME280;51369;49.862;9.908;2023-10-19T03:24:35;96565.50;;;11.03;85.48
64876;BME280;51369;49.862;9.908;2023-10-19T03:27:08;96562.81;;;11.03;86.11
64876;BME280;51369;49.862;9.908;2023-10-19T03:29:50;96555.69;;;11.02;85.66
64876;BME280;51369;49.862;9.908;2023-10-19T03:32:21;96560.00;;;11.04;86.39
64876;BME280;51369;49.862;9.908;2023-10-19T03:34:57;96556.31;;;11.05;86.57
64876;BME280;51369;49.862;9.908;2023-10-19T03:37:27;96565.19;;;11.07;86.82
64876;BME280;51369;49.862;9.908;2023-10-19T03:39:55;96561.50;;;11.08;86.48
64876;BME280;51369;49.862;9.908;2023-10-19T03:42:21;96563.22;;;11.09;85.70
64876;BME280;51369;49.862;9.908;2023-10-19T03:44:50;96555.13;;;11.09;86.65
64876;BME280;51369;49.862;9.908;2023-10-19T03:47:17;96556.72;;;11.12;86.29
64876;BME280;51369;49.862;9.908;2023-10-19T03:49:46;96549.50;;;11.13;86.42
64876;BME280;51369;49.862;9.908;2023-10-19T03:52:13;96547.66;;;11.13;85.92
64876;BME280;51369;49.862;9.908;2023-10-19T03:54:39;96544.84;;;11.15;86.55
64876;BME280;51369;49.862;9.908;2023-10-19T03:57:05;96548.41;;;11.15;86.25
64876;BME280;51369;49.862;9.908;2023-10-19T03:59:54;96556.41;;;11.17;85.97
64876;BME280;51369;49.862;9.908;2023-10-19T04:02:22;96557.16;;;11.19;86.95
64876;BME280;51369;49.862;9.908;2023-10-19T04:05:00;96539.84;;;11.21;86.75
64876;BME280;51369;49.862;9.908;2023-10-19T04:07:26;96530.88;;;11.21;86.26
64876;BME280;51369;49.862;9.908;2023-10-19T04:09:56;96528.19;;;11.21;86.99
64876;BME280;51369;49.862;9.908;2023-10-19T04:12:24;96533.59;;;11.21;86.05
64876;BME280;51369;49.862;9.908;2023-10-19T04:14:50;96531.63;;;11.23;86.43
64876;BME280;51369;49.862;9.908;2023-10-19T04:17:15;96520.72;;;11.24;87.13
64876;BME280;51369;49.862;9.908;2023-10-19T04:19:46;96512.50;;;11.26;86.31
64876;BME280;51369;49.862;9.908;2023-10-19T04:22:13;96513.25;;;11.28;86.82
64876;BME280;51369;49.862;9.908;2023-10-19T04:24:47;96504.28;;;11.27;86.38
64876;BME280;51369;49.862;9.908;2023-10-19T04:27:13;96505.03;;;11.29;86.72
64876;BME280;51369;49.862;9.908;2023-10-19T04:29:38;96514.84;;;11.30;86.55
64876;BME280;51369;49.862;9.908;2023-10-19T04:32:06;96505.78;;;11.31;87.16
64876;BME280;51369;49.862;9.908;2023-10-19T04:34:32;96508.34;;;11.33;87.19
64876;BME280;51369;49.862;9.908;2023-10-19T04:36:57;96508.25;;;11.34;86.96
64876;BME280;51369;49.862;9.908;2023-10-19T04:39:23;96505.44;;;11.36;87.36
64876;BME280;51369;49.862;9.908;2023-10-19T04:41:49;96502.59;;;11.37;87.67
64876;BME280;51369;49.862;9.908;2023-10-19T04:44:14;96500.66;;;11.39;87.42
64876;BME280;51369;49.862;9.908;2023-10-19T04:46:41;96496.09;;;11.40;87.54
64876;BME280;51369;49.862;9.908;2023-10-19T04:49:06;96496.34;;;11.37;87.56
64876;BME280;51369;49.862;9.908;2023-10-19T04:51:31;96508.13;;;11.36;87.24
64876;BME280;51369;49.862;9.908;2023-10-19T04:53:58;96494.63;;;11.36;87.74
64876;BME280;51369;49.862;9.908;2023-10-19T04:56:24;96496.34;;;11.37;87.64
64876;BME280;51369;49.862;9.908;2023-10-19T04:58:49;96498.06;;;11.38;87.91
64876;BME280;51369;49.862;9.908;2023-10-19T05:01:15;96496.09;;;11.40;87.68
64876;BME280;51369;49.862;9.908;2023-10-19T05:03:41;96496.09;;;11.40;87.34
64876;BME280;51369;49.862;9.908;2023-10-19T05:06:07;96490.47;;;11.43;87.53
64876;BME280;51369;49.862;9.908;2023-10-19T05:08:34;96493.19;;;11.43;88.49
64876;BME280;51369;49.862;9.908;2023-10-19T05:11:00;96489.50;;;11.44;87.66
64876;BME280;51369;49.862;9.908;2023-10-19T05:13:27;96485.81;;;11.45;87.53
64876;BME280;51369;49.862;9.908;2023-10-19T05:15:55;96499.31;;;11.45;88.28
64876;BME280;51369;49.862;9.908;2023-10-19T05:18:22;96490.13;;;11.48;88.03
64876;BME280;51369;49.862;9.908;2023-10-19T05:20:48;96491.84;;;11.49;87.78
64876;BME280;51369;49.862;9.908;2023-10-19T05:23:14;96492.59;;;11.51;87.87
64876;BME280;51369;49.862;9.908;2023-10-19T05:25:40;96486.31;;;11.50;87.82
64876;BME280;51369;49.862;9.908;2023-10-19T05:28:06;96487.06;;;11.52;88.06
64876;BME280;51369;49.862;9.908;2023-10-19T05:30:32;96490.63;;;11.53;88.19
64876;BME280;51369;49.862;9.908;2023-10-19T05:32:59;96494.09;;;11.55;88.02
64876;BME280;51369;49.862;9.908;2023-10-19T05:35:27;96493.22;;;11.54;88.05
64876;BME280;51369;49.862;9.908;2023-10-19T05:37:53;96494.94;;;11.55;88.50
64876;BME280;51369;49.862;9.908;2023-10-19T05:40:20;96496.53;;;11.58;88.61
64876;BME280;51369;49.862;9.908;2023-10-19T05:42:49;96494.72;;;11.58;88.09
64876;BME280;51369;49.862;9.908;2023-10-19T05:45:14;96487.34;;;11.60;88.19
64876;BME280;51369;49.862;9.908;2023-10-19T05:47:42;96489.06;;;11.61;88.35
64876;BME280;51369;49.862;9.908;2023-10-19T05:50:09;96486.25;;;11.63;87.73
64876;BME280;51369;49.862;9.908;2023-10-19T05:52:35;96492.41;;;11.65;88.32
64876;BME280;51369;49.862;9.908;2023-10-19T05:55:01;96490.44;;;11.67;88.42
64876;BME280;51369;49.862;9.908;2023-10-19T05:57:26;96491.31;;;11.67;88.45
64876;BME280;51369;49.862;9.908;2023-10-19T05:59:51;96485.78;;;11.69;88.92
64876;BME280;51369;49.862;9.908;2023-10-19T06:02:17;96483.94;;;11.69;88.15
64876;BME280;51369;49.862;9.908;2023-10-19T06:04:43;96482.94;;;11.70;88.58
64876;BME280;51369;49.862;9.908;2023-10-19T06:07:08;96492.66;;;11.73;88.00
64876;BME280;51369;49.862;9.908;2023-10-19T06:09:35;96493.53;;;11.73;88.62
64876;BME280;51369;49.862;9.908;2023-10-19T06:12:01;96486.16;;;11.76;87.98
64876;BME280;51369;49.862;9.908;2023-10-19T06:14:27;96496.97;;;11.76;88.57
64876;BME280;51369;49.862;9.908;2023-10-19T06:16:55;96509.44;;;11.78;88.99
64876;BME280;51369;49.862;9.908;2023-10-19T06:19:21;96502.19;;;11.79;88.46
64876;BME280;51369;49.862;9.908;2023-10-19T06:21:47;96495.66;;;11.81;88.43
64876;BME280;51369;49.862;9.908;2023-10-19T06:24:12;96497.28;;;11.84;88.78
64876;BME280;51369;49.862;9.908;2023-10-19T06:26:42;96487.19;;;11.86;88.53
64876;BME280;51369;49.862;9.908;2023-10-19T06:29:07;96486.09;;;11.88;88.71
64876;BME280;51369;49.862;9.908;2023-10-19T06:31:33;96481.31;;;11.92;89.57
64876;BME280;51369;49.862;9.908;2023-10-19T06:33:58;96490.06;;;11.95;89.55
64876;BME280;51369;49.862;9.908;2023-10-19T06:36:25;96487.09;;;11.98;89.71
64876;BME280;51369;49.862;9.908;2023-10-19T06:38:51;96485.03;;;12.02;89.40
64876;BME280;51369;49.862;9.908;2023-10-19T06:41:16;96497.31;;;12.06;89.74
64876;BME280;51369;49.862;9.908;2023-10-19T06:43:43;96481.84;;;12.08;88.94
64876;BME280;51369;49.862;9.908;2023-10-19T06:46:09;96480.47;;;12.14;89.89
64876;BME280;51369;49.862;9.908;2023-10-19T06:48:36;96499.03;;;12.18;90.31
64876;BME280;51369;49.862;9.908;2023-10-19T06:51:02;96505.81;;;12.24;89.98
64876;BME280;51369;49.862;9.908;2023-10-19T06:53:28;96506.31;;;12.29;89.67
64876;BME280;51369;49.862;9.908;2023-10-19T06:55:53;96494.13;;;12.34;89.36
64876;BME280;51369;49.862;9.908;2023-10-19T06:58:20;96491.91;;;12.39;89.86
64876;BME280;51369;49.862;9.908;2023-10-19T07:00:45;96495.97;;;12.45;89.81
64876;BME280;51369;49.862;9.908;2023-10-19T07:03:22;96502.88;;;12.49;89.94
64876;BME280;51369;49.862;9.908;2023-10-19T07:05:48;96505.22;;;12.54;89.75
64876;BME280;51369;49.862;9.908;2023-10-19T07:08:15;96510.38;;;12.57;90.02
64876;BME280;51369;49.862;9.908;2023-10-19T07:10:40;96508.16;;;12.62;89.78
64876;BME280;51369;49.862;9.908;2023-10-19T07:13:06;96495.25;;;12.65;89.98
64876;BME280;51369;49.862;9.908;2023-10-19T07:15:31;96496.72;;;12.69;89.74
64876;BME280;51369;49.862;9.908;2023-10-19T07:17:57;96489.31;;;12.71;89.52
64876;BME280;51369;49.862;9.908;2023-10-19T07:20:23;96491.91;;;12.73;89.84
64876;BME280;51369;49.862;9.908;2023-10-19T07:23:08;96497.81;;;12.78;89.37
64876;BME280;51369;49.862;9.908;2023-10-19T07:25:53;96497.44;;;12.83;89.52
64876;BME280;51369;49.862;9.908;2023-10-19T07:28:22;96503.34;;;12.88;89.53
64876;BME280;51369;49.862;9.908;2023-10-19T07:30:51;96491.28;;;12.92;89.14
64876;BME280;51369;49.862;9.908;2023-10-19T07:33:18;96491.88;;;12.95;89.72
64876;BME280;51369;49.862;9.908;2023-10-19T07:35:46;96489.91;;;12.97;89.29
64876;BME280;51369;49.862;9.908;2023-10-19T07:38:15;96484.22;;;13.00;88.86
64876;BME280;51369;49.862;9.908;2023-10-19T07:40:42;96488.53;;;13.03;89.85
64876;BME280;51369;49.862;9.908;2023-10-19T07:43:09;96482.00;;;13.06;89.06
64876;BME280;51369;49.862;9.908;2023-10-19T07:45:35;96485.31;;;13.09;89.43
64876;BME280;51369;49.862;9.908;2023-10-19T07:48:02;96480.50;;;13.13;89.33
64876;BME280;51369;49.862;9.908;2023-10-19T07:50:37;96474.22;;;13.23;89.69
64876;BME280;51369;49.862;9.908;2023-10-19T07:53:03;96479.13;;;13.29;89.36
64876;BME280;51369;49.862;9.908;2023-10-19T07:55:30;96481.94;;;13.39;89.29
64876;BME280;51369;49.862;9.908;2023-10-19T07:57:59;96475.00;;;13.46;89.52
64876;BME280;51369;49.862;9.908;2023-10-19T08:00:32;96463.53;;;13.54;89.45
64876;BME280;51369;49.862;9.908;2023-10-19T08:03:01;96473.13;;;13.58;89.46
64876;BME280;51369;49.862;9.908;2023-10-19T08:05:28;96471.47;;;13.66;90.21
64876;BME280;51369;49.862;9.908;2023-10-19T08:07:53;96474.53;;;13.73;89.68
64876;BME280;51369;49.862;9.908;2023-10-19T08:10:20;96470.56;;;13.77;90.17
64876;BME280;51369;49.862;9.908;2023-10-19T08:12:47;96474.59;;;13.83;89.92
64876;BME280;51369;49.862;9.908;2023-10-19T08:15:14;96487.59;;;13.89;90.33
64876;BME280;51369;49.862;9.908;2023-10-19T08:17:42;96488.06;;;13.94;89.79
64876;BME280;51369;49.862;9.908;2023-10-19T08:20:09;96485.53;;;14.02;89.84
64876;BME280;51369;49.862;9.908;2023-10-19T08:22:38;96487.88;;;14.07;88.96
64876;BME280;51369;49.862;9.908;2023-10-19T08:25:04;96486.59;;;14.11;88.98
64876;BME280;51369;49.862;9.908;2023-10-19T08:27:30;96493.34;;;14.16;88.64
64876;BME280;51369;49.862;9.908;2023-10-19T08:29:58;96494.06;;;14.18;88.93
64876;BME280;51369;49.862;9.908;2023-10-19T08:32:24;96485.66;;;14.21;88.78
64876;BME280;51369;49.862;9.908;2023-10-19T08:34:50;96484.81;;;14.21;88.65
64876;BME280;51369;49.862;9.908;2023-10-19T08:37:15;96475.41;;;14.25;88.63
64876;BME280;51369;49.862;9.908;2023-10-19T08:39:40;96468.97;;;14.26;88.72
64876;BME280;51369;49.862;9.908;2023-10-19T08:42:08;96467.13;;;14.26;88.83
64876;BME280;51369;49.862;9.908;2023-10-19T08:44:35;96469.56;;;14.29;88.37
64876;BME280;51369;49.862;9.908;2023-10-19T08:47:01;96470.44;;;14.30;88.20
64876;BME280;51369;49.862;9.908;2023-10-19T08:49:26;96477.44;;;14.32;88.68
64876;BME280;51369;49.862;9.908;2023-10-19T08:51:53;96474.59;;;14.34;88.28
64876;BME280;51369;49.862;9.908;2023-10-19T08:54:19;96477.19;;;14.36;88.45
64876;BME280;51369;49.862;9.908;2023-10-19T08:56:45;96473.06;;;14.41;88.34
64876;BME280;51369;49.862;9.908;2023-10-19T08:59:13;96471.84;;;14.45;88.03
64876;BME280;51369;49.862;9.908;2023-10-19T09:01:42;96471.41;;;14.50;88.13
64876;BME280;51369;49.862;9.908;2023-10-19T09:04:11;96461.88;;;14.55;88.82
64876;BME280;51369;49.862;9.908;2023-10-19T09:06:40;96457.75;;;14.61;88.55
64876;BME280;51369;49.862;9.908;2023-10-19T09:09:09;96466.06;;;14.69;89.03
64876;BME280;51369;49.862;9.908;2023-10-19T09:11:42;96471.22;;;14.72;89.35
64876;BME280;51369;49.862;9.908;2023-10-19T09:14:08;96474.41;;;14.77;89.51
64876;BME280;51369;49.862;9.908;2023-10-19T09:16:33;96472.25;;;14.81;88.82
64876;BME280;51369;49.862;9.908;2023-10-19T09:18:59;96464.56;;;14.86;88.87
64876;BME280;51369;49.862;9.908;2023-10-19T09:21:24;96462.28;;;14.91;89.15
64876;BME280;51369;49.862;9.908;2023-10-19T09:23:54;96471.16;;;14.93;88.77
64876;BME280;51369;49.862;9.908;2023-10-19T09:26:21;96464.31;;;14.98;88.55
64876;BME280;51369;49.862;9.908;2023-10-19T09:28:48;96457.75;;;15.01;88.20
64876;BME280;51369;49.862;9.908;2023-10-19T09:31:14;96448.59;;;15.02;87.72
64876;BME280;51369;49.862;9.908;2023-10-19T09:33:43;96444.88;;;15.03;87.36
64876;BME280;51369;49.862;9.908;2023-10-19T09:36:13;96443.88;;;15.04;86.58
64876;BME280;51369;49.862;9.908;2023-10-19T09:38:49;96446.59;;;15.04;87.09
64876;BME280;51369;49.862;9.908;2023-10-19T09:41:23;96440.00;;;15.07;87.34
64876;BME280;51369;49.862;9.908;2023-10-19T09:43:57;96442.44;;;15.10;87.38
64876;BME280;51369;49.862;9.908;2023-10-19T09:46:32;96435.00;;;15.12;87.43
64876;BME280;51369;49.862;9.908;2023-10-19T09:49:02;96444.31;;;15.19;87.76
64876;BME280;51369;49.862;9.908;2023-10-19T09:51:27;96425.72;;;15.24;87.70
64876;BME280;51369;49.862;9.908;2023-10-19T09:54:04;96429.75;;;15.29;87.08
64876;BME280;51369;49.862;9.908;2023-10-19T09:56:38;96434.31;;;15.39;87.32
64876;BME280;51369;49.862;9.908;2023-10-19T09:59:13;96431.63;;;15.48;88.19
64876;BME280;51369;49.862;9.908;2023-10-19T10:02:04;96428.94;;;15.58;88.11
64876;BME280;51369;49.862;9.908;2023-10-19T10:04:31;96430.03;;;15.65;87.15
64876;BME280;51369;49.862;9.908;2023-10-19T10:06:58;96428.59;;;15.71;86.91
64876;BME280;51369;49.862;9.908;2023-10-19T10:09:26;96427.31;;;15.75;86.55
64876;BME280;51369;49.862;9.908;2023-10-19T10:11:52;96426.88;;;15.79;86.68
64876;BME280;51369;49.862;9.908;2023-10-19T10:14:27;96427.28;;;15.84;85.85
64876;BME280;51369;49.862;9.908;2023-10-19T10:17:02;96420.84;;;15.95;86.02
64876;BME280;51369;49.862;9.908;2023-10-19T10:19:27;96417.38;;;16.03;85.87
64876;BME280;51369;49.862;9.908;2023-10-19T10:22:10;96416.06;;;16.16;86.12
64876;BME280;51369;49.862;9.908;2023-10-19T10:24:43;96399.97;;;16.33;85.93
64876;BME280;51369;49.862;9.908;2023-10-19T10:27:09;96406.63;;;16.48;85.59
64876;BME280;51369;49.862;9.908;2023-10-19T10:29:36;96404.56;;;16.59;86.21
64876;BME280;51369;49.862;9.908;2023-10-19T10:32:01;96401.69;;;16.71;85.65
64876;BME280;51369;49.862;9.908;2023-10-19T10:37:00;96394.72;;;16.86;85.63
64876;BME280;51369;49.862;9.908;2023-10-19T10:39:27;96400.19;;;17.04;85.34
64876;BME280;51369;49.862;9.908;2023-10-19T10:42:01;96390.94;;;17.14;85.32
64876;BME280;51369;49.862;9.908;2023-10-19T10:44:51;96391.88;;;17.23;84.33
64876;BME280;51369;49.862;9.908;2023-10-19T10:47:21;96396.41;;;17.32;83.65
64876;BME280;51369;49.862;9.908;2023-10-19T10:52:30;96393.88;;;17.39;83.49
64876;BME280;51369;49.862;9.908;2023-10-19T10:54:58;96391.56;;;17.44;83.60
64876;BME280;51369;49.862;9.908;2023-10-19T10:57:32;96389.38;;;17.47;83.32
64876;BME280;51369;49.862;9.908;2023-10-19T11:02:35;96393.03;;;17.56;83.21
64876;BME280;51369;49.862;9.908;2023-10-19T11:05:01;96386.94;;;17.62;83.46
64876;BME280;51369;49.862;9.908;2023-10-19T11:07:26;96377.31;;;17.68;83.71
64876;BME280;51369;49.862;9.908;2023-10-19T11:09:51;96377.53;;;17.74;83.31
64876;BME280;51369;49.862;9.908;2023-10-19T11:12:17;96368.88;;;17.79;82.96
64876;BME280;51369;49.862;9.908;2023-10-19T11:14:57;96372.13;;;17.82;83.48
64876;BME280;51369;49.862;9.908;2023-10-19T11:17:24;96362.28;;;17.89;82.61
64876;BME280;51369;49.862;9.908;2023-10-19T11:19:56;96366.56;;;17.92;82.50
64876;BME280;51369;49.862;9.908;2023-10-19T11:22:23;96368.66;;;17.98;82.63
64876;BME280;51369;49.862;9.908;2023-10-19T11:24:50;96358.13;;;18.03;82.29
64876;BME280;51369;49.862;9.908;2023-10-19T11:27:27;96357.81;;;18.06;82.37
64876;BME280;51369;49.862;9.908;2023-10-19T11:29:57;96356.31;;;18.12;82.05
64876;BME280;51369;49.862;9.908;2023-10-19T11:32:24;96358.53;;;18.16;81.76
64876;BME280;51369;49.862;9.908;2023-10-19T11:34:56;96356.50;;;18.18;81.82
64876;BME280;51369;49.862;9.908;2023-10-19T11:37:22;96355.16;;;18.23;81.59
64876;BME280;51369;49.862;9.908;2023-10-19T11:39:48;96358.59;;;18.25;80.49
64876;BME280;51369;49.862;9.908;2023-10-19T11:42:16;96359.13;;;18.28;81.37
64876;BME280;51369;49.862;9.908;2023-10-19T11:44:43;96345.16;;;18.31;81.23
64876;BME280;51369;49.862;9.908;2023-10-19T11:47:09;96349.25;;;18.35;81.38
64876;BME280;51369;49.862;9.908;2023-10-19T11:49:35;96338.38;;;18.43;81.07
64876;BME280;51369;49.862;9.908;2023-10-19T11:52:05;96339.97;;;18.54;80.83
64876;BME280;51369;49.862;9.908;2023-10-19T11:54:30;96348.59;;;18.67;80.78
64876;BME280;51369;49.862;9.908;2023-10-19T11:56:56;96344.53;;;18.79;80.06
64876;BME280;51369;49.862;9.908;2023-10-19T11:59:21;96334.47;;;18.88;80.03
64876;BME280;51369;49.862;9.908;2023-10-19T12:01:46;96335.38;;;18.97;79.84
64876;BME280;51369;49.862;9.908;2023-10-19T12:04:13;96332.66;;;19.05;79.76
64876;BME280;51369;49.862;9.908;2023-10-19T12:06:39;96336.22;;;19.13;79.97
64876;BME280;51369;49.862;9.908;2023-10-19T12:09:04;96332.13;;;19.17;79.04
64876;BME280;51369;49.862;9.908;2023-10-19T12:11:43;96337.59;;;19.17;78.69
64876;BME280;51369;49.862;9.908;2023-10-19T12:14:09;96327.50;;;19.18;78.63
64876;BME280;51369;49.862;9.908;2023-10-19T12:16:37;96321.69;;;19.21;78.65
64876;BME280;51369;49.862;9.908;2023-10-19T12:19:05;96329.41;;;19.26;79.36
64876;BME280;51369;49.862;9.908;2023-10-19T12:21:30;96329.41;;;19.34;79.84
64876;BME280;51369;49.862;9.908;2023-10-19T12:23:56;96329.59;;;19.40;79.06
64876;BME280;51369;49.862;9.908;2023-10-19T12:26:24;96332.50;;;19.47;78.80
64876;BME280;51369;49.862;9.908;2023-10-19T12:28:50;96325.84;;;19.49;77.83
64876;BME280;51369;49.862;9.908;2023-10-19T12:31:16;96328.41;;;19.51;77.95
64876;BME280;51369;49.862;9.908;2023-10-19T12:33:43;96322.63;;;19.54;77.62
64876;BME280;51369;49.862;9.908;2023-10-19T12:36:10;96330.66;;;19.56;78.01
64876;BME280;51369;49.862;9.908;2023-10-19T12:38:51;96321.25;;;19.58;78.25
64876;BME280;51369;49.862;9.908;2023-10-19T12:41:18;96321.75;;;19.62;78.82
64876;BME280;51369;49.862;9.908;2023-10-19T12:43:44;96326.91;;;19.65;78.82
64876;BME280;51369;49.862;9.908;2023-10-19T12:46:11;96321.25;;;19.66;77.75
64876;BME280;51369;49.862;9.908;2023-10-19T12:48:38;96317.47;;;19.67;78.52
64876;BME280;51369;49.862;9.908;2023-10-19T12:51:04;96322.09;;;19.67;77.85
64876;BME280;51369;49.862;9.908;2023-10-19T12:53:32;96317.16;;;19.62;77.07
64876;BME280;51369;49.862;9.908;2023-10-19T12:55:58;96318.69;;;19.57;76.50
64876;BME280;51369;49.862;9.908;2023-10-19T12:58:24;96310.28;;;19.50;76.97
64876;BME280;51369;49.862;9.908;2023-10-19T13:00:53;96305.47;;;19.44;76.75
64876;BME280;51369;49.862;9.908;2023-10-19T13:03:20;96296.41;;;19.35;76.59
64876;BME280;51369;49.862;9.908;2023-10-19T13:05:47;96307.19;;;19.29;76.63
64876;BME280;51369;49.862;9.908;2023-10-19T13:08:15;96298.97;;;19.21;77.30
64876;BME280;51369;49.862;9.908;2023-10-19T13:10:45;96290.41;;;19.15;77.49
64876;BME280;51369;49.862;9.908;2023-10-19T13:13:12;96294.69;;;19.10;77.71